Melbourne International Airport
KMLB : now visible

Airfield :











YOU CAN JOIN US ON...

 
LOGIN :

Register | Disclaimer

   EN    FR    IT 

 









Legend :    VFR   Marginal VFR   IFR   Intensive IFR   Very Intensive IFR
Visi :
Ceiling :
>= 8 km
>= 3000ft
5 to 8 km
1000 to 3000 ft
1500m to 5 km
500 to 1000 ft
800 to 1500m
200 to 500 ft
< 800m
< 200 ft
Symbols :   Thunderstorms  Fog  Heavy snow  Heavy precipitations  Wind > 20 kt






- Airport Elevation : 33 ft
- IATA code : MLB


KMLB - Melbourne International

CURRENT METAR :
  • 271353Z 29003KT 10SM CLR 22/21 A3014 RMK AO2 SLP207 T02170211

EXPIRED METARs :
  • 271253Z 00000KT 10SM CLR 19/19 A3013 RMK AO2 SLP203 T01890189 $
  • 271153Z 29003KT 10SM CLR 17/17 A3011 RMK AO2 SLP196 T01670167 10200 20161 53012 $

TAF KMLB
Valid from the 27 at 12:00 until the 28 at 12:00 UTC


271142Z 2712/2812 VRB03KT P6SM FEW040 SCT250
FM271700 08007KT P6SM SCT040 SCT250
FM280000 VRB03KT P6SM FEW045 SCT250
KZMA FIR / North America



MET'MAP, your aeronautical weather chart ! - Copyright ORBIFLY December 2007 - Disclaimer

ORBIFLY MET'MAP TEAM :

Programming & Development : Alexandra Zaïnal
Concept & original design : Baudouin d'Aumeries
Assistance for programming : Marc-Olivier Méhu
Technical & hardware support : Manuel Goepfert

Contact : metmap@orbifly.com




SOURCES & CREDITS :

   NOAA       Earth
Advisory